sensor_id;sensor_type;location;lat;lon;timestamp;temperature;humidity
10344;DHT22;5217;43.960;10.954;2023-04-25T00:02:12;17.80;99.90
10344;DHT22;5217;43.960;10.954;2023-04-25T00:04:42;17.90;99.90
10344;DHT22;5217;43.960;10.954;2023-04-25T00:07:10;17.80;99.90
10344;DHT22;5217;43.960;10.954;2023-04-25T00:09:39;17.80;99.90
10344;DHT22;5217;43.960;10.954;2023-04-25T00:12:08;17.80;99.90
10344;DHT22;5217;43.960;10.954;2023-04-25T00:14:36;17.80;99.90
10344;DHT22;5217;43.960;10.954;2023-04-25T00:17:07;17.80;99.90
10344;DHT22;5217;43.960;10.954;2023-04-25T00:19:35;17.80;99.90
10344;DHT22;5217;43.960;10.954;2023-04-25T00:22:04;17.90;99.90
10344;DHT22;5217;43.960;10.954;2023-04-25T00:24:33;17.80;99.90
10344;DHT22;5217;43.960;10.954;2023-04-25T00:27:01;17.80;99.90
10344;DHT22;5217;43.960;10.954;2023-04-25T00:29:30;17.80;99.90
10344;DHT22;5217;43.960;10.954;2023-04-25T00:31:58;17.80;99.90
10344;DHT22;5217;43.960;10.954;2023-04-25T00:34:29;17.80;99.90
10344;DHT22;5217;43.960;10.954;2023-04-25T00:36:57;17.80;99.90
10344;DHT22;5217;43.960;10.954;2023-04-25T00:39:28;17.80;99.90
10344;DHT22;5217;43.960;10.954;2023-04-25T00:41:56;17.80;99.90
10344;DHT22;5217;43.960;10.954;2023-04-25T00:44:26;17.80;99.90
10344;DHT22;5217;43.960;10.954;2023-04-25T00:46:56;17.80;99.90
10344;DHT22;5217;43.960;10.954;2023-04-25T00:49:25;17.80;99.90
10344;DHT22;5217;43.960;10.954;2023-04-25T00:51:55;17.80;99.90
10344;DHT22;5217;43.960;10.954;2023-04-25T00:54:24;17.80;99.90
10344;DHT22;5217;43.960;10.954;2023-04-25T00:56:53;17.80;99.90
10344;DHT22;5217;43.960;10.954;2023-04-25T00:59:22;17.80;99.90
10344;DHT22;5217;43.960;10.954;2023-04-25T01:01:50;17.80;99.90
10344;DHT22;5217;43.960;10.954;2023-04-25T01:04:19;17.80;99.90
10344;DHT22;5217;43.960;10.954;2023-04-25T01:06:48;17.80;99.90
10344;DHT22;5217;43.960;10.954;2023-04-25T01:09:18;17.80;99.90
10344;DHT22;5217;43.960;10.954;2023-04-25T01:11:46;17.80;99.90
10344;DHT22;5217;43.960;10.954;2023-04-25T01:14:15;17.80;99.90
10344;DHT22;5217;43.960;10.954;2023-04-25T01:16:44;17.80;99.90
10344;DHT22;5217;43.960;10.954;2023-04-25T01:19:16;17.80;99.90
10344;DHT22;5217;43.960;10.954;2023-04-25T01:21:46;17.80;99.90
10344;DHT22;5217;43.960;10.954;2023-04-25T01:24:15;17.80;99.90
10344;DHT22;5217;43.960;10.954;2023-04-25T01:26:44;17.80;99.90
10344;DHT22;5217;43.960;10.954;2023-04-25T01:29:16;17.80;99.90
10344;DHT22;5217;43.960;10.954;2023-04-25T01:31:46;17.80;99.90
10344;DHT22;5217;43.960;10.954;2023-04-25T01:34:14;17.70;99.90
10344;DHT22;5217;43.960;10.954;2023-04-25T01:36:43;17.80;99.90
10344;DHT22;5217;43.960;10.954;2023-04-25T01:39:13;17.80;99.90
10344;DHT22;5217;43.960;10.954;2023-04-25T01:41:41;17.80;99.90
10344;DHT22;5217;43.960;10.954;2023-04-25T01:44:09;17.80;99.90
10344;DHT22;5217;43.960;10.954;2023-04-25T01:46:38;17.80;99.90
10344;DHT22;5217;43.960;10.954;2023-04-25T01:49:07;17.70;99.90
10344;DHT22;5217;43.960;10.954;2023-04-25T01:51:35;17.80;99.70
10344;DHT22;5217;43.960;10.954;2023-04-25T01:54:04;17.80;99.40
10344;DHT22;5217;43.960;10.954;2023-04-25T01:56:37;17.80;99.10
10344;DHT22;5217;43.960;10.954;2023-04-25T01:59:05;17.90;98.80
10344;DHT22;5217;43.960;10.954;2023-04-25T02:01:34;17.80;98.70
10344;DHT22;5217;43.960;10.954;2023-04-25T02:04:02;17.80;98.60
10344;DHT22;5217;43.960;10.954;2023-04-25T02:06:31;17.80;98.60
10344;DHT22;5217;43.960;10.954;2023-04-25T02:08:59;17.80;98.80
10344;DHT22;5217;43.960;10.954;2023-04-25T02:11:28;17.80;98.80
10344;DHT22;5217;43.960;10.954;2023-04-25T02:13:57;17.80;99.20
10344;DHT22;5217;43.960;10.954;2023-04-25T02:16:26;17.80;99.50
10344;DHT22;5217;43.960;10.954;2023-04-25T02:18:54;17.80;99.90
10344;DHT22;5217;43.960;10.954;2023-04-25T02:21:23;17.80;99.90
10344;DHT22;5217;43.960;10.954;2023-04-25T02:23:51;17.80;99.90
10344;DHT22;5217;43.960;10.954;2023-04-25T02:26:19;17.80;99.90
10344;DHT22;5217;43.960;10.954;2023-04-25T02:28:48;17.80;99.90
10344;DHT22;5217;43.960;10.954;2023-04-25T02:31:18;17.80;99.90
10344;DHT22;5217;43.960;10.954;2023-04-25T02:33:47;17.70;99.90
10344;DHT22;5217;43.960;10.954;2023-04-25T02:36:15;17.70;99.90
10344;DHT22;5217;43.960;10.954;2023-04-25T02:38:44;17.70;99.90
10344;DHT22;5217;43.960;10.954;2023-04-25T02:41:12;17.70;99.90
10344;DHT22;5217;43.960;10.954;2023-04-25T02:43:41;17.70;99.90
10344;DHT22;5217;43.960;10.954;2023-04-25T02:46:09;17.70;99.90
10344;DHT22;5217;43.960;10.954;2023-04-25T02:48:39;17.70;99.90
10344;DHT22;5217;43.960;10.954;2023-04-25T02:51:07;17.70;99.90
10344;DHT22;5217;43.960;10.954;2023-04-25T02:53:36;17.70;99.90
10344;DHT22;5217;43.960;10.954;2023-04-25T02:56:04;17.70;99.90
10344;DHT22;5217;43.960;10.954;2023-04-25T02:58:33;17.70;99.90
10344;DHT22;5217;43.960;10.954;2023-04-25T03:01:01;17.70;99.90
10344;DHT22;5217;43.960;10.954;2023-04-25T03:03:30;17.70;99.90
10344;DHT22;5217;43.960;10.954;2023-04-25T03:06:00;17.70;99.90
10344;DHT22;5217;43.960;10.954;2023-04-25T03:08:28;17.60;99.90
10344;DHT22;5217;43.960;10.954;2023-04-25T03:10:59;17.60;99.90
10344;DHT22;5217;43.960;10.954;2023-04-25T03:13:27;17.60;99.90
10344;DHT22;5217;43.960;10.954;2023-04-25T03:15:56;17.60;99.90
10344;DHT22;5217;43.960;10.954;2023-04-25T03:18:25;17.60;99.90
10344;DHT22;5217;43.960;10.954;2023-04-25T03:20:53;17.60;99.90
10344;DHT22;5217;43.960;10.954;2023-04-25T03:23:23;17.60;99.90
10344;DHT22;5217;43.960;10.954;2023-04-25T03:25:51;17.60;99.90
10344;DHT22;5217;43.960;10.954;2023-04-25T03:28:20;17.60;99.90
10344;DHT22;5217;43.960;10.954;2023-04-25T03:30:48;17.60;99.90
10344;DHT22;5217;43.960;10.954;2023-04-25T03:33:17;17.60;99.90
10344;DHT22;5217;43.960;10.954;2023-04-25T03:35:45;17.60;99.90
10344;DHT22;5217;43.960;10.954;2023-04-25T03:38:14;17.60;99.90
10344;DHT22;5217;43.960;10.954;2023-04-25T03:40:43;17.60;99.90
10344;DHT22;5217;43.960;10.954;2023-04-25T03:43:12;17.60;99.90
10344;DHT22;5217;43.960;10.954;2023-04-25T03:45:41;17.50;99.90
10344;DHT22;5217;43.960;10.954;2023-04-25T03:48:09;17.60;99.90
10344;DHT22;5217;43.960;10.954;2023-04-25T03:50:37;17.50;99.90
10344;DHT22;5217;43.960;10.954;2023-04-25T03:53:06;17.50;99.90
10344;DHT22;5217;43.960;10.954;2023-04-25T03:55:34;17.50;99.90
10344;DHT22;5217;43.960;10.954;2023-04-25T03:58:04;17.50;99.90
10344;DHT22;5217;43.960;10.954;2023-04-25T04:00:33;17.50;99.90
10344;DHT22;5217;43.960;10.954;2023-04-25T04:03:01;17.50;99.90
10344;DHT22;5217;43.960;10.954;2023-04-25T04:05:30;17.50;99.90
10344;DHT22;5217;43.960;10.954;2023-04-25T04:07:59;17.50;99.90
10344;DHT22;5217;43.960;10.954;2023-04-25T04:10:27;17.50;99.90
10344;DHT22;5217;43.960;10.954;2023-04-25T04:12:56;17.50;99.90
10344;DHT22;5217;43.960;10.954;2023-04-25T04:15:26;17.50;99.90
10344;DHT22;5217;43.960;10.954;2023-04-25T04:17:54;17.50;99.90
10344;DHT22;5217;43.960;10.954;2023-04-25T04:20:23;17.50;99.90
10344;DHT22;5217;43.960;10.954;2023-04-25T04:22:51;17.40;99.90
10344;DHT22;5217;43.960;10.954;2023-04-25T04:25:19;17.40;99.90
10344;DHT22;5217;43.960;10.954;2023-04-25T04:27:48;17.50;99.90
10344;DHT22;5217;43.960;10.954;2023-04-25T04:30:18;17.40;99.90
10344;DHT22;5217;43.960;10.954;2023-04-25T04:32:50;17.40;99.90
10344;DHT22;5217;43.960;10.954;2023-04-25T04:35:18;17.40;99.90
10344;DHT22;5217;43.960;10.954;2023-04-25T04:37:47;17.40;99.90
10344;DHT22;5217;43.960;10.954;2023-04-25T04:40:16;17.40;99.90
10344;DHT22;5217;43.960;10.954;2023-04-25T04:42:44;17.40;99.90
10344;DHT22;5217;43.960;10.954;2023-04-25T04:45:13;17.40;99.90
10344;DHT22;5217;43.960;10.954;2023-04-25T04:47:43;17.50;99.90
10344;DHT22;5217;43.960;10.954;2023-04-25T04:50:13;17.40;99.90
10344;DHT22;5217;43.960;10.954;2023-04-25T04:52:42;17.50;99.90
10344;DHT22;5217;43.960;10.954;2023-04-25T04:55:10;17.40;99.90
10344;DHT22;5217;43.960;10.954;2023-04-25T04:57:38;17.40;99.90
10344;DHT22;5217;43.960;10.954;2023-04-25T05:00:08;17.40;99.90
10344;DHT22;5217;43.960;10.954;2023-04-25T05:02:38;17.40;99.90
10344;DHT22;5217;43.960;10.954;2023-04-25T05:05:07;17.40;99.90
10344;DHT22;5217;43.960;10.954;2023-04-25T05:07:37;17.40;99.90
10344;DHT22;5217;43.960;10.954;2023-04-25T05:10:06;17.40;99.90
10344;DHT22;5217;43.960;10.954;2023-04-25T05:12:35;17.40;99.90
10344;DHT22;5217;43.960;10.954;2023-04-25T05:15:04;17.40;99.90
10344;DHT22;5217;43.960;10.954;2023-04-25T05:17:32;17.40;99.90
10344;DHT22;5217;43.960;10.954;2023-04-25T05:20:02;17.40;99.90
10344;DHT22;5217;43.960;10.954;2023-04-25T05:22:33;17.40;99.90
10344;DHT22;5217;43.960;10.954;2023-04-25T05:25:03;17.40;99.90
10344;DHT22;5217;43.960;10.954;2023-04-25T05:27:34;17.40;99.90
10344;DHT22;5217;43.960;10.954;2023-04-25T05:30:03;17.40;99.90
10344;DHT22;5217;43.960;10.954;2023-04-25T05:32:32;17.40;99.90
10344;DHT22;5217;43.960;10.954;2023-04-25T05:35:01;17.40;99.90
10344;DHT22;5217;43.960;10.954;2023-04-25T05:37:30;17.30;99.90
10344;DHT22;5217;43.960;10.954;2023-04-25T05:39:59;17.30;99.90
10344;DHT22;5217;43.960;10.954;2023-04-25T05:42:29;17.40;99.90
10344;DHT22;5217;43.960;10.954;2023-04-25T05:44:57;17.30;99.90
10344;DHT22;5217;43.960;10.954;2023-04-25T05:47:26;17.40;99.90
10344;DHT22;5217;43.960;10.954;2023-04-25T05:49:54;17.30;99.90
10344;DHT22;5217;43.960;10.954;2023-04-25T05:52:22;17.40;99.90
10344;DHT22;5217;43.960;10.954;2023-04-25T05:54:51;17.40;99.90
10344;DHT22;5217;43.960;10.954;2023-04-25T05:57:21;17.40;99.90
10344;DHT22;5217;43.960;10.954;2023-04-25T05:59:51;17.30;99.90
10344;DHT22;5217;43.960;10.954;2023-04-25T06:02:20;17.40;99.90
10344;DHT22;5217;43.960;10.954;2023-04-25T06:04:50;17.40;99.90
10344;DHT22;5217;43.960;10.954;2023-04-25T06:07:19;17.30;99.90
10344;DHT22;5217;43.960;10.954;2023-04-25T06:09:47;17.40;99.90
10344;DHT22;5217;43.960;10.954;2023-04-25T06:12:16;17.30;99.90
10344;DHT22;5217;43.960;10.954;2023-04-25T06:14:44;17.40;99.90
10344;DHT22;5217;43.960;10.954;2023-04-25T06:17:14;17.40;99.90
10344;DHT22;5217;43.960;10.954;2023-04-25T06:19:42;17.30;99.90
10344;DHT22;5217;43.960;10.954;2023-04-25T06:22:11;17.30;99.90
10344;DHT22;5217;43.960;10.954;2023-04-25T06:24:39;17.30;99.90
10344;DHT22;5217;43.960;10.954;2023-04-25T06:27:07;17.30;99.90
10344;DHT22;5217;43.960;10.954;2023-04-25T06:29:36;17.30;99.90
10344;DHT22;5217;43.960;10.954;2023-04-25T06:32:05;17.30;99.90
10344;DHT22;5217;43.960;10.954;2023-04-25T06:34:34;17.30;99.90
10344;DHT22;5217;43.960;10.954;2023-04-25T06:37:03;17.30;99.90
10344;DHT22;5217;43.960;10.954;2023-04-25T06:39:31;17.30;99.90
10344;DHT22;5217;43.960;10.954;2023-04-25T06:41:59;17.30;99.90
10344;DHT22;5217;43.960;10.954;2023-04-25T06:44:28;17.30;99.90
10344;DHT22;5217;43.960;10.954;2023-04-25T06:46:57;17.40;99.90
10344;DHT22;5217;43.960;10.954;2023-04-25T06:49:25;17.40;99.90
10344;DHT22;5217;43.960;10.954;2023-04-25T06:51:55;17.40;99.90
10344;DHT22;5217;43.960;10.954;2023-04-25T06:54:23;17.40;99.90
10344;DHT22;5217;43.960;10.954;2023-04-25T06:56:54;17.50;99.90
10344;DHT22;5217;43.960;10.954;2023-04-25T06:59:22;17.50;99.90
10344;DHT22;5217;43.960;10.954;2023-04-25T07:01:51;17.50;99.90
10344;DHT22;5217;43.960;10.954;2023-04-25T07:04:19;17.50;99.90
10344;DHT22;5217;43.960;10.954;2023-04-25T07:06:48;17.50;99.90
10344;DHT22;5217;43.960;10.954;2023-04-25T07:09:18;17.50;99.90
10344;DHT22;5217;43.960;10.954;2023-04-25T07:11:46;17.50;99.90
10344;DHT22;5217;43.960;10.954;2023-04-25T07:14:14;17.50;99.90
10344;DHT22;5217;43.960;10.954;2023-04-25T07:16:43;17.50;99.90
10344;DHT22;5217;43.960;10.954;2023-04-25T07:19:12;17.40;99.90
10344;DHT22;5217;43.960;10.954;2023-04-25T07:21:40;17.50;99.90
10344;DHT22;5217;43.960;10.954;2023-04-25T07:24:08;17.40;99.90
10344;DHT22;5217;43.960;10.954;2023-04-25T07:26:38;17.40;99.90
10344;DHT22;5217;43.960;10.954;2023-04-25T07:29:07;17.40;99.90
10344;DHT22;5217;43.960;10.954;2023-04-25T07:31:35;17.50;99.90
10344;DHT22;5217;43.960;10.954;2023-04-25T07:34:04;17.50;99.90
10344;DHT22;5217;43.960;10.954;2023-04-25T07:36:32;17.50;99.90
10344;DHT22;5217;43.960;10.954;2023-04-25T07:39:01;17.50;99.90
10344;DHT22;5217;43.960;10.954;2023-04-25T07:41:30;17.50;99.90
10344;DHT22;5217;43.960;10.954;2023-04-25T07:43:59;17.50;99.90
10344;DHT22;5217;43.960;10.954;2023-04-25T07:46:28;17.50;99.90
10344;DHT22;5217;43.960;10.954;2023-04-25T07:48:56;17.50;99.90
10344;DHT22;5217;43.960;10.954;2023-04-25T07:51:25;17.50;99.90
10344;DHT22;5217;43.960;10.954;2023-04-25T07:53:53;17.50;99.90
10344;DHT22;5217;43.960;10.954;2023-04-25T07:56:21;17.50;99.90
10344;DHT22;5217;43.960;10.954;2023-04-25T07:58:50;17.50;99.90
10344;DHT22;5217;43.960;10.954;2023-04-25T08:01:20;17.50;99.90
10344;DHT22;5217;43.960;10.954;2023-04-25T08:03:49;17.50;99.90
10344;DHT22;5217;43.960;10.954;2023-04-25T08:06:17;17.60;99.90
10344;DHT22;5217;43.960;10.954;2023-04-25T08:08:46;17.60;99.90
10344;DHT22;5217;43.960;10.954;2023-04-25T08:11:15;17.60;99.90
10344;DHT22;5217;43.960;10.954;2023-04-25T08:13:43;17.60;99.90
10344;DHT22;5217;43.960;10.954;2023-04-25T08:16:12;17.60;99.90
10344;DHT22;5217;43.960;10.954;2023-04-25T08:18:42;17.70;99.90
10344;DHT22;5217;43.960;10.954;2023-04-25T08:21:10;17.70;99.90
10344;DHT22;5217;43.960;10.954;2023-04-25T08:23:39;17.70;99.90
10344;DHT22;5217;43.960;10.954;2023-04-25T08:26:07;17.80;99.90
10344;DHT22;5217;43.960;10.954;2023-04-25T08:28:36;17.80;99.90
10344;DHT22;5217;43.960;10.954;2023-04-25T08:31:04;17.80;99.90
10344;DHT22;5217;43.960;10.954;2023-04-25T08:33:33;17.80;99.90
10344;DHT22;5217;43.960;10.954;2023-04-25T08:36:03;17.80;99.90
10344;DHT22;5217;43.960;10.954;2023-04-25T08:38:31;17.90;99.90
10344;DHT22;5217;43.960;10.954;2023-04-25T08:41:00;17.90;99.90
10344;DHT22;5217;43.960;10.954;2023-04-25T08:43:29;17.90;99.90
10344;DHT22;5217;43.960;10.954;2023-04-25T08:45:59;17.90;99.90
10344;DHT22;5217;43.960;10.954;2023-04-25T08:48:28;18.00;99.90
10344;DHT22;5217;43.960;10.954;2023-04-25T08:51:03;18.00;99.90
10344;DHT22;5217;43.960;10.954;2023-04-25T08:53:39;18.00;99.90
10344;DHT22;5217;43.960;10.954;2023-04-25T08:56:10;18.00;99.90
10344;DHT22;5217;43.960;10.954;2023-04-25T08:58:41;18.00;99.90
10344;DHT22;5217;43.960;10.954;2023-04-25T09:01:09;18.10;99.90
10344;DHT22;5217;43.960;10.954;2023-04-25T09:03:38;18.10;99.90
10344;DHT22;5217;43.960;10.954;2023-04-25T09:06:10;18.10;99.90
10344;DHT22;5217;43.960;10.954;2023-04-25T09:08:39;18.10;99.90
10344;DHT22;5217;43.960;10.954;2023-04-25T09:11:07;18.20;99.90
10344;DHT22;5217;43.960;10.954;2023-04-25T09:13:36;18.30;99.90
10344;DHT22;5217;43.960;10.954;2023-04-25T09:16:04;18.30;99.90
10344;DHT22;5217;43.960;10.954;2023-04-25T09:18:34;18.30;99.90
10344;DHT22;5217;43.960;10.954;2023-04-25T09:21:06;18.40;99.90
10344;DHT22;5217;43.960;10.954;2023-04-25T09:23:44;18.40;99.90
10344;DHT22;5217;43.960;10.954;2023-04-25T09:26:14;18.50;99.90
10344;DHT22;5217;43.960;10.954;2023-04-25T09:28:44;18.50;99.90
10344;DHT22;5217;43.960;10.954;2023-04-25T09:31:20;18.50;99.90
10344;DHT22;5217;43.960;10.954;2023-04-25T09:33:49;18.50;99.90
10344;DHT22;5217;43.960;10.954;2023-04-25T09:36:26;18.50;99.90
10344;DHT22;5217;43.960;10.954;2023-04-25T09:38:57;18.60;99.90
10344;DHT22;5217;43.960;10.954;2023-04-25T09:41:27;18.60;99.90
10344;DHT22;5217;43.960;10.954;2023-04-25T09:43:57;18.60;99.90
10344;DHT22;5217;43.960;10.954;2023-04-25T09:46:33;18.60;99.90
10344;DHT22;5217;43.960;10.954;2023-04-25T09:49:06;18.70;99.90
10344;DHT22;5217;43.960;10.954;2023-04-25T09:51:35;18.70;99.90
10344;DHT22;5217;43.960;10.954;2023-04-25T09:54:05;18.60;99.90
10344;DHT22;5217;43.960;10.954;2023-04-25T09:56:36;18.70;99.90
10344;DHT22;5217;43.960;10.954;2023-04-25T09:59:05;18.70;99.90
10344;DHT22;5217;43.960;10.954;2023-04-25T10:01:35;18.80;99.90
10344;DHT22;5217;43.960;10.954;2023-04-25T10:04:04;18.80;99.90
10344;DHT22;5217;43.960;10.954;2023-04-25T10:06:34;18.80;99.90
10344;DHT22;5217;43.960;10.954;2023-04-25T10:09:05;18.80;99.90
10344;DHT22;5217;43.960;10.954;2023-04-25T10:11:35;18.80;99.90
10344;DHT22;5217;43.960;10.954;2023-04-25T10:14:04;18.90;99.90
10344;DHT22;5217;43.960;10.954;2023-04-25T10:16:33;18.90;99.90
10344;DHT22;5217;43.960;10.954;2023-04-25T10:19:02;18.90;99.90
10344;DHT22;5217;43.960;10.954;2023-04-25T10:21:32;18.90;99.90
10344;DHT22;5217;43.960;10.954;2023-04-25T10:24:01;19.00;99.90
10344;DHT22;5217;43.960;10.954;2023-04-25T10:26:32;18.90;99.90
10344;DHT22;5217;43.960;10.954;2023-04-25T10:29:01;18.90;99.90
10344;DHT22;5217;43.960;10.954;2023-04-25T10:31:31;19.00;99.90
10344;DHT22;5217;43.960;10.954;2023-04-25T10:33:59;19.00;99.90
10344;DHT22;5217;43.960;10.954;2023-04-25T10:36:31;19.00;99.90
10344;DHT22;5217;43.960;10.954;2023-04-25T10:39:04;19.10;99.90
10344;DHT22;5217;43.960;10.954;2023-04-25T10:41:47;19.10;99.90
10344;DHT22;5217;43.960;10.954;2023-04-25T10:44:16;19.10;99.90
10344;DHT22;5217;43.960;10.954;2023-04-25T10:46:45;19.10;99.90
10344;DHT22;5217;43.960;10.954;2023-04-25T10:49:29;19.10;99.90
10344;DHT22;5217;43.960;10.954;2023-04-25T10:52:18;19.10;99.90
10344;DHT22;5217;43.960;10.954;2023-04-25T10:54:47;19.10;99.90
10344;DHT22;5217;43.960;10.954;2023-04-25T10:57:32;19.10;99.90
10344;DHT22;5217;43.960;10.954;2023-04-25T11:00:06;19.20;99.90
10344;DHT22;5217;43.960;10.954;2023-04-25T11:02:44;19.30;99.90
10344;DHT22;5217;43.960;10.954;2023-04-25T11:05:29;19.30;99.90
10344;DHT22;5217;43.960;10.954;2023-04-25T11:08:00;19.30;99.90
10344;DHT22;5217;43.960;10.954;2023-04-25T11:10:34;19.30;99.90
10344;DHT22;5217;43.960;10.954;2023-04-25T11:13:04;19.30;99.90
10344;DHT22;5217;43.960;10.954;2023-04-25T11:15:33;19.30;99.90
10344;DHT22;5217;43.960;10.954;2023-04-25T11:18:01;19.30;99.50
10344;DHT22;5217;43.960;10.954;2023-04-25T11:20:30;19.30;99.90
10344;DHT22;5217;43.960;10.954;2023-04-25T11:22:58;19.40;99.90
10344;DHT22;5217;43.960;10.954;2023-04-25T11:25:32;19.40;99.70
10344;DHT22;5217;43.960;10.954;2023-04-25T11:28:06;19.30;99.40
10344;DHT22;5217;43.960;10.954;2023-04-25T11:30:34;19.40;99.10
10344;DHT22;5217;43.960;10.954;2023-04-25T11:33:03;19.30;98.90
10344;DHT22;5217;43.960;10.954;2023-04-25T11:35:31;19.30;99.30
10344;DHT22;5217;43.960;10.954;2023-04-25T11:38:01;19.30;98.50
10344;DHT22;5217;43.960;10.954;2023-04-25T11:40:30;19.30;98.20
10344;DHT22;5217;43.960;10.954;2023-04-25T11:43:00;19.30;97.50
10344;DHT22;5217;43.960;10.954;2023-04-25T11:45:30;19.30;97.50
10344;DHT22;5217;43.960;10.954;2023-04-25T11:47:58;19.30;98.30
10344;DHT22;5217;43.960;10.954;2023-04-25T11:50:28;19.20;98.70
10344;DHT22;5217;43.960;10.954;2023-04-25T11:52:57;19.10;98.30
10344;DHT22;5217;43.960;10.954;2023-04-25T11:55:25;19.00;98.50
10344;DHT22;5217;43.960;10.954;2023-04-25T11:57:54;18.90;98.40
10344;DHT22;5217;43.960;10.954;2023-04-25T12:00:23;18.90;98.40
10344;DHT22;5217;43.960;10.954;2023-04-25T12:02:55;18.80;98.50
10344;DHT22;5217;43.960;10.954;2023-04-25T12:05:26;18.80;99.10
10344;DHT22;5217;43.960;10.954;2023-04-25T12:08:10;18.80;99.60
10344;DHT22;5217;43.960;10.954;2023-04-25T12:10:41;18.80;99.90
10344;DHT22;5217;43.960;10.954;2023-04-25T12:13:21;18.70;99.90
10344;DHT22;5217;43.960;10.954;2023-04-25T12:15:49;18.70;99.90
10344;DHT22;5217;43.960;10.954;2023-04-25T12:18:22;18.60;99.90
10344;DHT22;5217;43.960;10.954;2023-04-25T12:20:52;18.60;99.90
10344;DHT22;5217;43.960;10.954;2023-04-25T12:23:25;18.60;99.90
10344;DHT22;5217;43.960;10.954;2023-04-25T12:25:55;18.60;99.90
10344;DHT22;5217;43.960;10.954;2023-04-25T12:28:25;18.60;99.90
10344;DHT22;5217;43.960;10.954;2023-04-25T12:30:56;18.50;99.90
10344;DHT22;5217;43.960;10.954;2023-04-25T12:33:29;18.60;99.90
10344;DHT22;5217;43.960;10.954;2023-04-25T12:35:58;18.50;99.90
10344;DHT22;5217;43.960;10.954;2023-04-25T12:38:28;18.50;99.90
10344;DHT22;5217;43.960;10.954;2023-04-25T12:40:57;18.50;99.90
10344;DHT22;5217;43.960;10.954;2023-04-25T12:43:26;18.50;99.90
10344;DHT22;5217;43.960;10.954;2023-04-25T12:45:56;18.50;99.90
10344;DHT22;5217;43.960;10.954;2023-04-25T12:48:24;18.50;99.90
10344;DHT22;5217;43.960;10.954;2023-04-25T12:50:54;18.50;99.90
10344;DHT22;5217;43.960;10.954;2023-04-25T12:53:23;18.40;99.90
10344;DHT22;5217;43.960;10.954;2023-04-25T12:55:51;18.40;99.90
10344;DHT22;5217;43.960;10.954;2023-04-25T12:58:21;18.40;99.90
10344;DHT22;5217;43.960;10.954;2023-04-25T13:00:50;18.40;99.90
10344;DHT22;5217;43.960;10.954;2023-04-25T13:03:18;18.40;99.90
10344;DHT22;5217;43.960;10.954;2023-04-25T13:05:47;18.40;99.90
10344;DHT22;5217;43.960;10.954;2023-04-25T13:08:18;18.40;99.90
10344;DHT22;5217;43.960;10.954;2023-04-25T13:10:47;18.40;99.90
10344;DHT22;5217;43.960;10.954;2023-04-25T13:13:17;18.40;99.90
10344;DHT22;5217;43.960;10.954;2023-04-25T13:15:45;18.40;99.90
10344;DHT22;5217;43.960;10.954;2023-04-25T13:18:15;18.40;99.90
10344;DHT22;5217;43.960;10.954;2023-04-25T13:20:43;18.40;99.90
10344;DHT22;5217;43.960;10.954;2023-04-25T13:23:13;18.40;99.90
10344;DHT22;5217;43.960;10.954;2023-04-25T13:25:42;18.40;99.90
10344;DHT22;5217;43.960;10.954;2023-04-25T13:28:11;18.30;99.90
10344;DHT22;5217;43.960;10.954;2023-04-25T13:30:40;18.20;99.90
10344;DHT22;5217;43.960;10.954;2023-04-25T13:33:09;18.30;99.90
10344;DHT22;5217;43.960;10.954;2023-04-25T13:35:38;18.30;99.90
10344;DHT22;5217;43.960;10.954;2023-04-25T13:38:08;18.30;99.90
10344;DHT22;5217;43.960;10.954;2023-04-25T13:40:37;18.30;99.90
10344;DHT22;5217;43.960;10.954;2023-04-25T13:43:07;18.30;99.90
10344;DHT22;5217;43.960;10.954;2023-04-25T13:45:35;18.30;99.90
10344;DHT22;5217;43.960;10.954;2023-04-25T13:48:03;18.40;99.90
10344;DHT22;5217;43.960;10.954;2023-04-25T13:50:32;18.40;99.90
10344;DHT22;5217;43.960;10.954;2023-04-25T13:53:01;18.40;99.90
10344;DHT22;5217;43.960;10.954;2023-04-25T13:55:29;18.40;99.90
10344;DHT22;5217;43.960;10.954;2023-04-25T13:57:58;18.40;99.90
10344;DHT22;5217;43.960;10.954;2023-04-25T14:00:28;18.40;99.90
10344;DHT22;5217;43.960;10.954;2023-04-25T14:02:56;18.40;99.90
10344;DHT22;5217;43.960;10.954;2023-04-25T14:05:25;18.40;99.90
10344;DHT22;5217;43.960;10.954;2023-04-25T14:07:53;18.40;99.90
10344;DHT22;5217;43.960;10.954;2023-04-25T14:10:22;18.40;99.90
10344;DHT22;5217;43.960;10.954;2023-04-25T14:12:50;18.40;99.90
10344;DHT22;5217;43.960;10.954;2023-04-25T14:15:19;18.50;99.90
10344;DHT22;5217;43.960;10.954;2023-04-25T14:17:49;18.50;99.90
10344;DHT22;5217;43.960;10.954;2023-04-25T14:20:18;18.50;99.90
10344;DHT22;5217;43.960;10.954;2023-04-25T14:22:48;18.50;99.90
10344;DHT22;5217;43.960;10.954;2023-04-25T14:25:16;18.40;99.90
10344;DHT22;5217;43.960;10.954;2023-04-25T14:27:45;18.50;99.90
10344;DHT22;5217;43.960;10.954;2023-04-25T14:30:16;18.40;99.90
10344;DHT22;5217;43.960;10.954;2023-04-25T14:32:46;18.40;99.90
10344;DHT22;5217;43.960;10.954;2023-04-25T14:35:16;18.50;99.90
10344;DHT22;5217;43.960;10.954;2023-04-25T14:37:44;18.50;99.90
10344;DHT22;5217;43.960;10.954;2023-04-25T14:40:13;18.50;99.90
10344;DHT22;5217;43.960;10.954;2023-04-25T14:42:44;18.50;99.90
10344;DHT22;5217;43.960;10.954;2023-04-25T14:45:12;18.50;99.90
10344;DHT22;5217;43.960;10.954;2023-04-25T14:47:40;18.40;99.90
10344;DHT22;5217;43.960;10.954;2023-04-25T14:50:10;18.40;99.90
10344;DHT22;5217;43.960;10.954;2023-04-25T14:52:40;18.40;99.90
10344;DHT22;5217;43.960;10.954;2023-04-25T14:55:08;18.30;99.90
10344;DHT22;5217;43.960;10.954;2023-04-25T14:57:37;18.40;99.90
10344;DHT22;5217;43.960;10.954;2023-04-25T15:00:07;18.30;99.90
10344;DHT22;5217;43.960;10.954;2023-04-25T15:02:36;18.30;99.90
10344;DHT22;5217;43.960;10.954;2023-04-25T15:05:06;18.30;99.90
10344;DHT22;5217;43.960;10.954;2023-04-25T15:07:35;18.30;99.90
10344;DHT22;5217;43.960;10.954;2023-04-25T15:10:06;18.30;99.90
10344;DHT22;5217;43.960;10.954;2023-04-25T15:12:40;18.40;99.90
10344;DHT22;5217;43.960;10.954;2023-04-25T15:15:10;18.40;99.90
10344;DHT22;5217;43.960;10.954;2023-04-25T15:17:43;18.40;99.90
10344;DHT22;5217;43.960;10.954;2023-04-25T15:20:13;18.40;99.90
10344;DHT22;5217;43.960;10.954;2023-04-25T15:22:43;18.50;99.90
10344;DHT22;5217;43.960;10.954;2023-04-25T15:25:14;18.50;99.90
10344;DHT22;5217;43.960;10.954;2023-04-25T15:27:43;18.40;99.90
10344;DHT22;5217;43.960;10.954;2023-04-25T15:30:15;18.40;99.90
10344;DHT22;5217;43.960;10.954;2023-04-25T15:32:45;18.40;99.90
10344;DHT22;5217;43.960;10.954;2023-04-25T15:35:14;18.50;99.90
10344;DHT22;5217;43.960;10.954;2023-04-25T15:37:42;18.50;99.90
10344;DHT22;5217;43.960;10.954;2023-04-25T15:40:15;18.60;99.90
10344;DHT22;5217;43.960;10.954;2023-04-25T15:42:45;18.60;99.90
10344;DHT22;5217;43.960;10.954;2023-04-25T15:45:14;18.60;99.90